Terminal Aerodrome Forecast
Issued by NWS Albany, NY

Home | Current Version | Previous Version | Text Only | Print | Product List | Glossary On
Versions: 1 2 3 4 5 6 7 8 9 10 11 12 13 14 15 16 17 18 19 20
123
FTUS41 KALY 240524
TAFALB
TAF
KALB 240524Z 2406/2506 16003KT P6SM BKN110
     FM241100 17008KT P6SM OVC090
     FM241400 17013G22KT 1 1/2SM -SN BR BKN025 OVC060
     FM241600 17015G27KT 2SM -FZRAPL BR BKN015 OVC035
     FM241700 17013G24KT 6SM -RA SCT015 OVC035
     FM242100 17010KT P6SM OVC025 PROB30 2503/2506 2SM -RA BR
      OVC007=

USA.gov is the U.S. government's official web portal to all federal, state and local government web resources and services.